createdAt,value
2018-07-05T00:00:11.550Z,60.20
2018-07-05T00:02:51.396Z,60.50
2018-07-05T00:05:31.085Z,60.70
2018-07-05T00:08:10.873Z,60.70
2018-07-05T00:10:50.513Z,60.90
2018-07-05T00:13:30.145Z,60.80
2018-07-05T00:16:09.892Z,61.20
2018-07-05T00:18:50.026Z,61.20
2018-07-05T00:21:30.105Z,61.20
2018-07-05T00:24:09.902Z,61.30
2018-07-05T00:26:49.581Z,61.30
2018-07-05T00:29:29.268Z,61.40
2018-07-05T00:32:08.868Z,61.30
2018-07-05T00:34:48.632Z,61.30
2018-07-05T00:37:28.577Z,61.40
2018-07-05T00:40:08.509Z,61.30
2018-07-05T00:42:48.249Z,61.50
2018-07-05T00:45:27.998Z,61.50
2018-07-05T00:50:41.350Z,62.60
2018-07-05T00:53:21.037Z,62.10
2018-07-05T00:56:00.945Z,62.20
2018-07-05T00:58:41.105Z,62.10
2018-07-05T01:01:20.961Z,62.20
2018-07-05T01:04:00.620Z,62.30
2018-07-05T01:06:40.141Z,62.20
2018-07-05T01:09:19.782Z,62.40
2018-07-05T01:11:59.480Z,62.80
2018-07-05T01:14:39.555Z,62.70
2018-07-05T01:17:19.289Z,62.80
2018-07-05T01:19:59.217Z,63.00
2018-07-05T01:22:38.956Z,63.20
2018-07-05T01:25:18.596Z,63.40
2018-07-05T01:27:58.525Z,63.60
2018-07-05T01:30:38.157Z,63.60
2018-07-05T01:33:18.285Z,63.30
2018-07-05T01:35:58.193Z,63.40
2018-07-05T01:38:37.812Z,63.30
2018-07-05T01:41:17.673Z,63.60
2018-07-05T01:43:57.402Z,63.40
2018-07-05T01:46:37.267Z,63.30
2018-07-05T01:49:16.989Z,63.20
2018-07-05T01:51:56.729Z,63.10
2018-07-05T01:54:36.420Z,63.40
2018-07-05T01:57:16.078Z,63.70
2018-07-05T01:59:55.887Z,63.80
2018-07-05T02:02:35.516Z,64.30
2018-07-05T02:07:49.116Z,64.70
2018-07-05T02:10:28.913Z,64.70
2018-07-05T02:13:08.821Z,64.80
2018-07-05T02:15:48.598Z,64.40
2018-07-05T02:18:28.350Z,64.20
2018-07-05T02:23:41.928Z,63.70
2018-07-05T02:26:21.673Z,63.90
2018-07-05T02:29:01.393Z,65.20
2018-07-05T02:31:41.116Z,65.80
2018-07-05T02:34:20.793Z,66.00
2018-07-05T02:37:00.637Z,66.40
2018-07-05T02:39:45.782Z,66.70
2018-07-05T02:42:25.578Z,67.00
2018-07-05T02:45:05.377Z,67.50
2018-07-05T02:47:45.122Z,67.80
2018-07-05T02:50:24.907Z,68.00
2018-07-05T02:53:04.569Z,69.10
2018-07-05T02:55:44.262Z,69.10
2018-07-05T02:58:23.985Z,69.80
2018-07-05T03:01:03.800Z,71.40
2018-07-05T03:03:43.725Z,72.80
2018-07-05T03:06:23.450Z,73.30
2018-07-05T03:09:04.745Z,74.00
2018-07-05T03:11:44.617Z,75.00
2018-07-05T03:14:24.200Z,75.50
2018-07-05T03:17:04.001Z,76.10
2018-07-05T03:19:43.629Z,76.50
2018-07-05T03:22:23.426Z,76.70
2018-07-05T03:25:03.014Z,77.20
2018-07-05T03:27:42.757Z,77.60
2018-07-05T03:30:22.493Z,77.80
2018-07-05T03:33:02.174Z,78.10
2018-07-05T03:35:41.946Z,78.40
2018-07-05T03:38:21.600Z,79.00
2018-07-05T03:41:01.238Z,80.50
2018-07-05T03:43:40.917Z,81.50
2018-07-05T03:46:20.641Z,82.20
2018-07-05T03:49:00.322Z,83.90
2018-07-05T03:51:40.135Z,85.10
2018-07-05T03:54:19.752Z,85.40
2018-07-05T03:56:59.635Z,85.20
2018-07-05T03:59:39.381Z,85.10
2018-07-05T04:02:19.037Z,84.00
2018-07-05T04:04:58.985Z,83.20
2018-07-05T04:07:38.773Z,82.50
2018-07-05T04:10:18.489Z,82.00
2018-07-05T04:12:58.301Z,80.90
2018-07-05T04:15:38.065Z,80.10
2018-07-05T04:18:17.760Z,79.80
2018-07-05T04:20:57.582Z,81.00
2018-07-05T04:23:37.517Z,82.00
2018-07-05T04:26:17.275Z,81.50
2018-07-05T04:28:57.113Z,80.40
2018-07-05T04:31:36.925Z,79.50
2018-07-05T04:34:16.624Z,78.90
2018-07-05T04:36:56.265Z,79.10
2018-07-05T04:39:36.085Z,79.90
2018-07-05T04:42:15.864Z,80.10
2018-07-05T04:44:55.753Z,78.70
2018-07-05T04:47:35.481Z,77.00
2018-07-05T04:50:15.226Z,77.50
2018-07-05T04:52:54.922Z,81.20
2018-07-05T04:55:34.873Z,83.80
2018-07-05T04:58:14.589Z,85.10
2018-07-05T05:00:54.364Z,84.10
2018-07-05T05:03:34.122Z,84.50
2018-07-05T05:06:13.842Z,84.90
2018-07-05T05:08:53.666Z,85.60
2018-07-05T05:11:33.344Z,85.80
2018-07-05T05:14:12.924Z,86.20
2018-07-05T05:16:52.534Z,86.10
2018-07-05T05:19:32.249Z,86.90
2018-07-05T05:22:11.910Z,87.50
2018-07-05T05:24:51.561Z,87.10
2018-07-05T05:27:31.473Z,87.20
2018-07-05T05:30:11.158Z,88.20
2018-07-05T05:32:50.892Z,88.10
2018-07-05T05:35:30.691Z,80.00
2018-07-05T05:38:10.373Z,75.70
2018-07-05T05:40:50.151Z,77.70
2018-07-05T05:43:30.298Z,82.10
2018-07-05T05:46:09.925Z,87.50
2018-07-05T05:48:49.876Z,89.20
2018-07-05T05:51:29.609Z,89.50
2018-07-05T05:54:09.589Z,89.40
2018-07-05T05:56:49.370Z,87.90
2018-07-05T05:59:29.145Z,85.90
2018-07-05T06:02:08.993Z,84.60
2018-07-05T06:04:48.781Z,84.90
2018-07-05T06:07:28.881Z,82.10
2018-07-05T06:10:08.661Z,80.80
2018-07-05T06:12:48.448Z,80.90
2018-07-05T06:15:28.204Z,81.90
2018-07-05T06:18:07.865Z,83.90
2018-07-05T06:20:47.589Z,86.20
2018-07-05T06:23:27.373Z,86.90
2018-07-05T06:26:07.190Z,87.40
2018-07-05T06:28:46.977Z,86.90
2018-07-05T06:31:26.573Z,86.20
2018-07-05T06:34:06.194Z,86.80
2018-07-05T06:36:45.801Z,86.50
2018-07-05T06:39:25.794Z,85.40
2018-07-05T06:44:39.258Z,81.80
2018-07-05T06:47:18.984Z,81.00
2018-07-05T06:49:58.709Z,73.60
2018-07-05T06:52:38.399Z,72.10
2018-07-05T06:55:18.013Z,69.60
2018-07-05T06:57:57.906Z,65.40
2018-07-05T07:00:37.674Z,65.10
2018-07-05T07:03:17.324Z,63.40
2018-07-05T07:05:57.069Z,61.60
2018-07-05T07:08:37.209Z,60.20
2018-07-05T07:11:16.841Z,60.50
2018-07-05T07:13:56.673Z,60.30
2018-07-05T07:16:36.342Z,59.80
2018-07-05T07:19:15.982Z,60.20
2018-07-05T07:21:55.722Z,57.90
2018-07-05T07:24:35.409Z,58.00
2018-07-05T07:27:15.163Z,58.50
2018-07-05T07:29:54.861Z,58.10
2018-07-05T07:32:34.485Z,58.70
2018-07-05T07:35:14.304Z,58.50
2018-07-05T07:37:53.974Z,56.90
2018-07-05T07:40:33.737Z,56.50
2018-07-05T07:43:01.062Z,56.60
2018-07-05T07:45:29.070Z,57.60
2018-07-05T07:47:56.342Z,57.60
2018-07-05T07:50:23.707Z,57.60
2018-07-05T07:52:51.041Z,56.50
2018-07-05T07:55:18.577Z,55.90
2018-07-05T07:57:45.941Z,56.00
2018-07-05T08:00:13.255Z,54.80
2018-07-05T08:02:40.566Z,55.30
2018-07-05T08:05:07.897Z,54.50
2018-07-05T08:07:35.201Z,54.20
2018-07-05T08:10:02.504Z,53.70
2018-07-05T08:12:29.854Z,52.80
2018-07-05T08:14:57.208Z,52.90
2018-07-05T08:17:24.615Z,52.80
2018-07-05T08:19:51.937Z,52.90
2018-07-05T08:22:19.258Z,53.30
2018-07-05T08:24:46.590Z,53.50
2018-07-05T08:27:13.897Z,53.00
2018-07-05T08:29:41.225Z,53.30
2018-07-05T08:32:08.629Z,52.00
2018-07-05T08:34:35.950Z,51.50
2018-07-05T08:37:03.253Z,52.30
2018-07-05T08:39:30.565Z,50.20
2018-07-05T08:41:57.881Z,51.60
2018-07-05T08:44:25.205Z,51.00
2018-07-05T08:46:52.521Z,51.70
2018-07-05T08:49:19.854Z,51.30
2018-07-05T08:51:47.173Z,51.60
2018-07-05T08:54:14.661Z,50.50
2018-07-05T08:56:41.994Z,49.70
2018-07-05T08:59:09.316Z,50.90
2018-07-05T09:01:36.637Z,50.60
2018-07-05T09:04:03.949Z,49.80
2018-07-05T09:06:31.259Z,50.30
2018-07-05T09:08:58.577Z,50.50
2018-07-05T09:11:25.918Z,50.30
2018-07-05T09:13:53.233Z,49.60
2018-07-05T09:16:20.549Z,49.50
2018-07-05T09:18:47.860Z,49.20
2018-07-05T09:21:15.220Z,50.00
2018-07-05T09:23:42.594Z,49.20
2018-07-05T09:26:09.861Z,48.50
2018-07-05T09:28:37.197Z,48.20
2018-07-05T09:31:04.539Z,50.90
2018-07-05T09:33:31.835Z,51.20
2018-07-05T09:35:59.736Z,50.60
2018-07-05T09:38:27.074Z,48.50
2018-07-05T09:40:54.425Z,48.20
2018-07-05T09:43:21.736Z,48.50
2018-07-05T09:45:49.057Z,48.80
2018-07-05T09:48:16.366Z,48.30
2018-07-05T09:50:43.689Z,48.10
2018-07-05T09:53:11.033Z,47.80
2018-07-05T09:55:38.357Z,47.20
2018-07-05T09:58:05.700Z,48.30
2018-07-05T10:00:38.405Z,49.30
2018-07-05T10:05:33.412Z,47.50
2018-07-05T10:08:00.834Z,47.20
2018-07-05T10:10:28.144Z,48.00
2018-07-05T10:12:55.508Z,49.70
2018-07-05T10:15:22.832Z,49.70
2018-07-05T10:17:50.138Z,49.30
2018-07-05T10:20:17.466Z,48.00
2018-07-05T10:22:44.782Z,44.50
2018-07-05T10:25:12.669Z,45.00
2018-07-05T10:27:39.981Z,43.30
2018-07-05T10:30:19.829Z,43.90
2018-07-05T10:32:59.683Z,45.50
2018-07-05T10:35:26.950Z,46.10
2018-07-05T10:37:59.227Z,45.50
2018-07-05T10:40:40.249Z,44.20
2018-07-05T10:43:20.069Z,44.60
2018-07-05T10:46:00.433Z,43.70
2018-07-05T10:48:40.486Z,42.90
2018-07-05T10:51:21.137Z,42.70
2018-07-05T10:54:01.497Z,43.30
2018-07-05T10:56:41.461Z,41.80
2018-07-05T10:59:21.357Z,42.10
2018-07-05T11:02:01.149Z,42.20
2018-07-05T11:04:40.806Z,43.70
2018-07-05T11:07:20.588Z,43.30
2018-07-05T11:10:00.453Z,42.20
2018-07-05T11:12:39.981Z,36.50
2018-07-05T11:15:19.666Z,41.10
2018-07-05T11:17:59.316Z,37.80
2018-07-05T11:20:38.977Z,38.60
2018-07-05T11:23:18.945Z,39.10
2018-07-05T11:25:58.653Z,40.20
2018-07-05T11:28:38.573Z,37.30
2018-07-05T11:31:18.204Z,36.40
2018-07-05T11:33:57.865Z,36.90
2018-07-05T11:36:37.669Z,37.20
2018-07-05T11:39:17.303Z,36.40
2018-07-05T11:41:57.057Z,34.00
2018-07-05T11:44:36.942Z,33.00
2018-07-05T11:47:16.669Z,33.20
2018-07-05T11:49:56.508Z,34.80
2018-07-05T11:52:36.301Z,35.40
2018-07-05T11:55:16.018Z,34.50
2018-07-05T11:57:55.961Z,33.60
2018-07-05T12:00:35.553Z,33.30
2018-07-05T12:03:15.476Z,33.30
2018-07-05T12:05:55.130Z,32.30
2018-07-05T12:08:34.925Z,33.80
2018-07-05T12:11:14.637Z,34.10
2018-07-05T12:13:54.493Z,34.60
2018-07-05T12:16:34.421Z,34.60
2018-07-05T12:19:14.477Z,33.50
2018-07-05T12:24:28.121Z,32.20
2018-07-05T12:27:07.792Z,33.20
2018-07-05T12:29:47.722Z,33.40
2018-07-05T12:32:27.618Z,33.60
2018-07-05T12:35:07.630Z,33.40
2018-07-05T12:37:47.404Z,33.50
2018-07-05T12:40:27.308Z,34.50
2018-07-05T12:43:06.957Z,35.10
2018-07-05T12:45:46.747Z,34.80
2018-07-05T12:48:26.369Z,35.10
2018-07-05T12:51:06.393Z,35.20
2018-07-05T12:53:46.289Z,35.40
2018-07-05T12:56:26.057Z,35.50
2018-07-05T12:59:05.886Z,34.90
2018-07-05T13:01:45.494Z,37.50
2018-07-05T13:04:25.268Z,34.70
2018-07-05T13:07:05.165Z,33.10
2018-07-05T13:09:45.061Z,31.80
2018-07-05T13:12:24.826Z,32.30
2018-07-05T13:15:04.634Z,32.40
2018-07-05T13:17:44.361Z,35.20
2018-07-05T13:20:24.033Z,37.50
2018-07-05T13:23:03.556Z,36.40
2018-07-05T13:25:43.369Z,37.70
2018-07-05T13:28:22.956Z,38.60
2018-07-05T13:33:36.433Z,40.40
2018-07-05T13:36:16.196Z,41.10
2018-07-05T13:38:56.001Z,40.30
2018-07-05T13:41:35.661Z,40.00
2018-07-05T13:44:15.420Z,40.20
2018-07-05T13:46:55.084Z,39.80
2018-07-05T13:49:34.890Z,40.30
2018-07-05T13:52:14.653Z,39.10
2018-07-05T13:54:54.469Z,37.90
2018-07-05T13:57:34.417Z,38.70
2018-07-05T14:00:14.041Z,39.70
2018-07-05T14:02:53.756Z,39.70
2018-07-05T14:05:33.497Z,38.20
2018-07-05T14:08:13.161Z,37.40
2018-07-05T14:10:52.925Z,37.00
2018-07-05T14:13:32.626Z,35.00
2018-07-05T14:16:12.709Z,37.10
2018-07-05T14:18:52.512Z,34.00
2018-07-05T14:21:32.838Z,32.80
2018-07-05T14:24:12.473Z,33.10
2018-07-05T14:26:52.178Z,32.80
2018-07-05T14:29:32.054Z,32.20
2018-07-05T14:32:11.624Z,32.20
2018-07-05T14:34:51.349Z,30.60
2018-07-05T14:37:31.049Z,31.40
2018-07-05T14:40:10.926Z,31.80
2018-07-05T14:42:50.745Z,33.00
2018-07-05T14:45:30.653Z,31.10
2018-07-05T14:50:44.153Z,31.90
2018-07-05T14:53:23.954Z,33.30
2018-07-05T14:56:03.597Z,32.90
2018-07-05T14:58:43.345Z,33.20
2018-07-05T15:01:22.957Z,30.80
2018-07-05T15:04:02.950Z,30.70
2018-07-05T15:06:42.717Z,31.20
2018-07-05T15:09:22.516Z,30.70
2018-07-05T15:12:02.277Z,33.20
2018-07-05T15:14:42.023Z,30.60
2018-07-05T15:17:21.809Z,29.90
2018-07-05T15:20:01.614Z,30.00
2018-07-05T15:22:41.262Z,29.90
2018-07-05T15:25:20.941Z,29.90
2018-07-05T15:28:00.632Z,29.20
2018-07-05T15:30:40.542Z,29.60
2018-07-05T15:33:20.190Z,29.50
2018-07-05T15:35:59.865Z,30.50
2018-07-05T15:38:39.509Z,30.50
2018-07-05T15:43:52.982Z,30.00
2018-07-05T15:46:32.585Z,32.30
2018-07-05T15:49:12.162Z,32.90
2018-07-05T15:51:51.918Z,33.00
2018-07-05T15:54:31.446Z,32.80
2018-07-05T15:57:11.089Z,32.10
2018-07-05T15:59:50.741Z,33.70
2018-07-05T16:02:30.393Z,34.70
2018-07-05T16:05:10.006Z,34.20
2018-07-05T16:07:49.809Z,32.90
2018-07-05T16:10:29.473Z,32.30
2018-07-05T16:13:09.413Z,32.70
2018-07-05T16:15:49.129Z,33.60
2018-07-05T16:18:29.054Z,34.30
2018-07-05T16:21:08.777Z,34.60
2018-07-05T16:23:48.448Z,34.30
2018-07-05T16:26:28.297Z,35.40
2018-07-05T16:29:08.029Z,36.40
2018-07-05T16:31:47.925Z,38.20
2018-07-05T16:34:27.810Z,39.60
2018-07-05T16:37:07.441Z,39.00
2018-07-05T16:39:47.118Z,37.70
2018-07-05T16:42:26.944Z,39.20
2018-07-05T16:45:07.506Z,39.90
2018-07-05T16:47:47.381Z,40.70
2018-07-05T16:50:27.194Z,41.90
2018-07-05T16:53:06.941Z,39.90
2018-07-05T16:55:46.817Z,37.80
2018-07-05T16:58:26.621Z,36.90
2018-07-05T17:01:06.355Z,36.80
2018-07-05T17:03:46.233Z,36.90
2018-07-05T17:06:25.924Z,37.60
2018-07-05T17:09:05.927Z,37.70
2018-07-05T17:11:45.679Z,37.90
2018-07-05T17:14:25.420Z,39.40
2018-07-05T17:17:05.206Z,41.40
2018-07-05T17:19:44.965Z,41.20
2018-07-05T17:22:24.899Z,41.60
2018-07-05T17:25:04.796Z,41.90
2018-07-05T17:27:44.564Z,43.60
2018-07-05T17:30:24.238Z,44.20
2018-07-05T17:33:04.058Z,43.90
2018-07-05T17:35:43.965Z,44.30
2018-07-05T17:38:23.900Z,43.20
2018-07-05T17:41:03.695Z,43.60
2018-07-05T17:43:43.365Z,43.40
2018-07-05T17:46:23.009Z,43.80
2018-07-05T17:49:02.572Z,43.90
2018-07-05T17:51:42.203Z,44.10
2018-07-05T17:54:22.049Z,44.10
2018-07-05T17:57:01.629Z,43.30
2018-07-05T17:59:41.517Z,42.30
2018-07-05T18:02:21.333Z,41.90
2018-07-05T18:05:00.941Z,42.90
2018-07-05T18:07:40.561Z,43.70
2018-07-05T18:10:20.245Z,43.90
2018-07-05T18:12:59.900Z,44.30
2018-07-05T18:15:39.677Z,45.10
2018-07-05T18:18:19.921Z,45.90
2018-07-05T18:21:00.405Z,46.20
2018-07-05T18:23:40.339Z,46.50
2018-07-05T18:26:20.124Z,47.80
2018-07-05T18:28:59.849Z,47.90
2018-07-05T18:31:39.392Z,48.60
2018-07-05T18:34:19.133Z,49.50
2018-07-05T18:36:58.857Z,50.30
2018-07-05T18:39:38.594Z,50.80
2018-07-05T18:42:18.349Z,50.70
2018-07-05T18:44:58.217Z,50.70
2018-07-05T18:47:38.253Z,51.40
2018-07-05T18:50:17.921Z,51.10
2018-07-05T18:52:57.550Z,51.30
2018-07-05T18:55:37.212Z,51.70
2018-07-05T18:58:16.878Z,52.40
2018-07-05T19:00:56.616Z,52.60
2018-07-05T19:03:36.561Z,52.90
2018-07-05T19:06:16.261Z,53.10
2018-07-05T19:08:55.997Z,53.40
2018-07-05T19:11:35.845Z,53.10
2018-07-05T19:14:15.569Z,52.20
2018-07-05T19:16:55.462Z,51.50
2018-07-05T19:19:35.375Z,51.70
2018-07-05T19:22:15.147Z,52.30
2018-07-05T19:24:54.938Z,52.60
2018-07-05T19:27:34.892Z,53.50
2018-07-05T19:30:14.733Z,54.00
2018-07-05T19:32:54.413Z,54.40
2018-07-05T19:35:35.039Z,54.70
2018-07-05T19:38:14.869Z,54.80
2018-07-05T19:43:28.381Z,55.00
2018-07-05T19:46:08.157Z,55.40
2018-07-05T19:48:47.917Z,55.50
2018-07-05T19:51:27.874Z,55.90
2018-07-05T19:54:07.698Z,56.10
2018-07-05T19:56:47.358Z,56.20
2018-07-05T19:59:27.333Z,56.70
2018-07-05T20:02:07.186Z,57.10
2018-07-05T20:04:46.893Z,57.40
2018-07-05T20:07:26.629Z,57.60
2018-07-05T20:10:06.369Z,57.60
2018-07-05T20:12:46.173Z,57.60
2018-07-05T20:15:25.870Z,57.60
2018-07-05T20:20:39.200Z,57.40
2018-07-05T20:23:18.950Z,57.60
2018-07-05T20:25:58.708Z,57.40
2018-07-05T20:31:11.950Z,57.20
2018-07-05T20:33:51.843Z,57.20
2018-07-05T20:36:31.608Z,57.30
2018-07-05T20:39:11.367Z,57.30
2018-07-05T20:41:51.137Z,57.50
2018-07-05T20:44:31.057Z,57.40
2018-07-05T20:47:10.756Z,57.40
2018-07-05T20:49:50.521Z,57.00
2018-07-05T20:52:30.232Z,55.80
2018-07-05T20:55:09.926Z,55.30
2018-07-05T20:57:49.720Z,56.10
2018-07-05T21:00:29.365Z,57.30
2018-07-05T21:03:09.137Z,58.00
2018-07-05T21:05:48.927Z,58.90
2018-07-05T21:08:28.592Z,60.20
2018-07-05T21:11:08.346Z,61.70
2018-07-05T21:13:48.184Z,62.80
2018-07-05T21:16:27.933Z,63.70
2018-07-05T21:19:07.549Z,64.80
2018-07-05T21:21:47.265Z,65.40
2018-07-05T21:24:27.041Z,66.60
2018-07-05T21:27:06.838Z,67.40
2018-07-05T21:29:46.489Z,68.00
2018-07-05T21:32:26.210Z,69.10
2018-07-05T21:35:05.841Z,70.30
2018-07-05T21:37:45.629Z,71.30
2018-07-05T21:40:25.330Z,72.80
2018-07-05T21:43:04.980Z,73.90
2018-07-05T21:48:18.417Z,77.50
2018-07-05T21:50:58.077Z,78.90
2018-07-05T21:53:37.885Z,80.00
2018-07-05T21:56:17.772Z,80.10
2018-07-05T21:58:57.413Z,81.20
2018-07-05T22:01:37.078Z,81.70
2018-07-05T22:04:16.789Z,82.70
2018-07-05T22:06:56.430Z,83.30
2018-07-05T22:09:36.225Z,83.80
2018-07-05T22:12:15.926Z,84.70
2018-07-05T22:14:55.557Z,84.90
2018-07-05T22:17:40.695Z,85.00
2018-07-05T22:20:25.873Z,84.50
2018-07-05T22:23:11.080Z,83.80
2018-07-05T22:25:56.387Z,83.60
2018-07-05T22:28:41.823Z,84.00
2018-07-05T22:31:27.112Z,85.30
2018-07-05T22:34:06.891Z,84.70
2018-07-05T22:36:46.537Z,84.40
2018-07-05T22:39:26.228Z,85.80
2018-07-05T22:42:05.841Z,85.70
2018-07-05T22:44:45.836Z,86.00
2018-07-05T22:47:26.085Z,85.70
2018-07-05T22:50:05.835Z,86.70
2018-07-05T22:52:45.890Z,86.70
2018-07-05T22:55:25.549Z,86.10
2018-07-05T22:57:58.956Z,85.20
2018-07-05T23:00:38.917Z,85.00
2018-07-05T23:03:12.389Z,85.20
2018-07-05T23:05:52.246Z,85.30
2018-07-05T23:08:32.285Z,86.60
2018-07-05T23:13:45.780Z,89.60
2018-07-05T23:16:25.581Z,90.20
2018-07-05T23:21:39.197Z,90.20
2018-07-05T23:24:18.767Z,90.80
2018-07-05T23:26:58.737Z,90.70
2018-07-05T23:29:38.265Z,91.30
2018-07-05T23:32:17.994Z,91.80
2018-07-05T23:34:51.333Z,91.50
2018-07-05T23:37:24.740Z,91.80
2018-07-05T23:39:58.044Z,92.00
2018-07-05T23:42:31.316Z,92.40
2018-07-05T23:45:04.649Z,92.30
2018-07-05T23:47:38.082Z,92.20
2018-07-05T23:50:17.769Z,91.90
2018-07-05T23:52:50.924Z,91.60
2018-07-05T23:55:30.613Z,91.90
2018-07-05T23:58:10.474Z,92.10
